createdAt,value
2023-05-13T00:00:45.831Z,14.60
2023-05-13T00:03:12.989Z,14.50
2023-05-13T00:05:40.722Z,14.50
2023-05-13T00:08:07.707Z,14.40
2023-05-13T00:10:35.685Z,14.30
2023-05-13T00:13:04.364Z,14.20
2023-05-13T00:15:31.895Z,14.20
2023-05-13T00:17:58.922Z,14.10
2023-05-13T00:20:26.299Z,14.00
2023-05-13T00:22:53.249Z,14.00
2023-05-13T00:25:20.252Z,14.00
2023-05-13T00:27:47.509Z,13.90
2023-05-13T00:30:14.660Z,13.90
2023-05-13T00:32:42.313Z,13.80
2023-05-13T00:35:10.163Z,13.80
2023-05-13T00:37:39.044Z,13.70
2023-05-13T00:40:07.954Z,13.60
2023-05-13T00:42:34.938Z,13.60
2023-05-13T00:45:03.039Z,13.60
2023-05-13T00:47:30.660Z,13.50
2023-05-13T00:49:58.176Z,13.40
2023-05-13T00:52:26.232Z,13.40
2023-05-13T00:54:53.342Z,13.40
2023-05-13T00:57:21.506Z,13.30
2023-05-13T00:59:48.921Z,13.30
2023-05-13T01:02:34.937Z,13.30
2023-05-13T01:05:11.267Z,13.20
2023-05-13T01:07:59.617Z,13.20
2023-05-13T01:10:51.714Z,13.20
2023-05-13T01:13:25.092Z,13.20
2023-05-13T01:16:01.027Z,13.20
2023-05-13T01:18:36.267Z,13.20
2023-05-13T01:21:05.346Z,13.10
2023-05-13T01:23:33.192Z,13.20
2023-05-13T01:26:00.549Z,13.20
2023-05-13T01:28:29.634Z,13.20
2023-05-13T01:30:57.642Z,13.20
2023-05-13T01:33:27.174Z,13.20
2023-05-13T01:35:54.928Z,13.10
2023-05-13T01:38:26.019Z,13.10
2023-05-13T01:40:56.893Z,13.10
2023-05-13T01:43:24.017Z,13.20
2023-05-13T01:45:52.623Z,13.00
2023-05-13T01:48:22.269Z,13.00
2023-05-13T01:50:49.629Z,13.00
2023-05-13T01:53:16.599Z,12.90
2023-05-13T01:55:44.316Z,12.80
2023-05-13T01:58:11.618Z,12.70
2023-05-13T02:00:40.045Z,12.60
2023-05-13T02:03:07.212Z,12.60
2023-05-13T02:05:34.294Z,12.50
2023-05-13T02:08:06.601Z,12.50
2023-05-13T02:10:33.607Z,12.40
2023-05-13T02:13:02.131Z,12.40
2023-05-13T02:15:29.215Z,12.30
2023-05-13T02:17:56.549Z,12.20
2023-05-13T02:20:27.054Z,12.20
2023-05-13T02:22:54.768Z,12.10
2023-05-13T02:25:21.749Z,12.20
2023-05-13T02:27:49.238Z,12.10
2023-05-13T02:30:16.430Z,12.00
2023-05-13T02:32:45.295Z,12.00
2023-05-13T02:35:12.508Z,12.00
2023-05-13T02:37:39.615Z,12.10
2023-05-13T02:40:08.031Z,12.10
2023-05-13T02:42:35.189Z,12.00
2023-05-13T02:45:02.846Z,12.00
2023-05-13T02:47:32.899Z,11.90
2023-05-13T02:50:06.391Z,11.90
2023-05-13T02:52:36.028Z,11.80
2023-05-13T02:55:03.971Z,11.80
2023-05-13T02:57:31.184Z,11.80
2023-05-13T02:59:58.865Z,11.80
2023-05-13T03:02:26.049Z,11.80
2023-05-13T03:04:55.062Z,11.80
2023-05-13T03:07:22.594Z,11.80
2023-05-13T03:09:49.555Z,11.70
2023-05-13T03:12:19.303Z,11.80
2023-05-13T03:14:48.296Z,11.70
2023-05-13T03:17:16.887Z,11.70
2023-05-13T03:19:45.528Z,11.60
2023-05-13T03:22:14.369Z,11.50
2023-05-13T03:24:42.842Z,11.50
2023-05-13T03:27:10.673Z,11.50
2023-05-13T03:29:39.279Z,11.50
2023-05-13T03:32:07.309Z,11.40
2023-05-13T03:34:37.392Z,11.40
2023-05-13T03:37:05.405Z,11.40
2023-05-13T03:39:32.373Z,11.30
2023-05-13T03:41:59.888Z,11.30
2023-05-13T03:44:27.144Z,11.30
2023-05-13T03:46:54.334Z,11.30
2023-05-13T03:49:21.757Z,11.30
2023-05-13T03:51:48.752Z,11.30
2023-05-13T03:54:16.215Z,11.20
2023-05-13T03:56:43.417Z,11.20
2023-05-13T03:59:10.506Z,11.10
2023-05-13T04:01:37.463Z,11.10
2023-05-13T04:04:04.662Z,11.10
2023-05-13T04:06:32.492Z,11.10
2023-05-13T04:09:01.121Z,11.00
2023-05-13T04:11:28.204Z,11.00
2023-05-13T04:13:55.543Z,11.00
2023-05-13T04:16:22.966Z,10.90
2023-05-13T04:18:50.221Z,11.00
2023-05-13T04:21:17.513Z,11.00
2023-05-13T04:23:44.575Z,11.00
2023-05-13T04:26:13.866Z,11.00
2023-05-13T04:28:41.612Z,11.00
2023-05-13T04:31:08.771Z,11.10
2023-05-13T04:33:37.863Z,11.10
2023-05-13T04:36:06.018Z,11.10
2023-05-13T04:38:33.217Z,11.10
2023-05-13T04:41:01.142Z,11.10
2023-05-13T04:43:39.101Z,11.10
2023-05-13T04:46:06.224Z,11.20
2023-05-13T04:48:33.272Z,11.30
2023-05-13T04:51:00.789Z,11.30
2023-05-13T04:53:29.665Z,11.30
2023-05-13T04:56:04.361Z,11.40
2023-05-13T04:58:31.559Z,11.50
2023-05-13T05:00:58.680Z,11.50
2023-05-13T05:03:25.860Z,11.60
2023-05-13T05:05:53.932Z,11.70
2023-05-13T05:08:22.162Z,11.80
2023-05-13T05:10:50.915Z,11.80
2023-05-13T05:13:21.391Z,11.90
2023-05-13T05:15:49.397Z,12.00
2023-05-13T05:18:16.830Z,12.10
2023-05-13T05:20:47.439Z,12.20
2023-05-13T05:23:18.070Z,12.30
2023-05-13T05:25:58.067Z,12.30
2023-05-13T05:28:40.427Z,12.40
2023-05-13T05:31:08.510Z,12.40
2023-05-13T05:33:36.813Z,12.40
2023-05-13T05:36:04.649Z,12.50
2023-05-13T05:38:31.702Z,12.60
2023-05-13T05:41:01.248Z,12.60
2023-05-13T05:43:29.363Z,12.60
2023-05-13T05:45:56.492Z,12.70
2023-05-13T05:48:23.593Z,12.70
2023-05-13T05:50:51.073Z,12.80
2023-05-13T05:53:26.632Z,12.80
2023-05-13T05:55:54.437Z,12.90
2023-05-13T05:58:21.794Z,13.00
2023-05-13T06:00:49.083Z,12.90
2023-05-13T06:03:16.151Z,12.90
2023-05-13T06:05:44.552Z,13.00
2023-05-13T06:08:13.377Z,13.00
2023-05-13T06:10:40.969Z,13.00
2023-05-13T06:13:07.915Z,13.20
2023-05-13T06:15:38.328Z,13.30
2023-05-13T06:18:06.125Z,13.50
2023-05-13T06:20:36.195Z,13.60
2023-05-13T06:23:03.213Z,13.50
2023-05-13T06:25:31.383Z,13.60
2023-05-13T06:28:03.125Z,13.80
2023-05-13T06:30:30.501Z,13.80
2023-05-13T06:33:02.191Z,13.70
2023-05-13T06:35:31.278Z,13.70
2023-05-13T06:37:59.423Z,13.90
2023-05-13T06:40:26.982Z,13.80
2023-05-13T06:42:55.418Z,13.90
2023-05-13T06:45:29.567Z,14.10
2023-05-13T06:47:58.524Z,14.20
2023-05-13T06:50:25.592Z,14.40
2023-05-13T06:52:52.752Z,14.30
2023-05-13T06:55:19.947Z,14.20
2023-05-13T06:57:47.463Z,14.40
2023-05-13T07:00:15.581Z,14.50
2023-05-13T07:02:42.836Z,14.70
2023-05-13T07:05:12.212Z,14.60
2023-05-13T07:07:39.350Z,14.70
2023-05-13T07:10:06.577Z,14.90
2023-05-13T07:12:33.908Z,15.10
2023-05-13T07:15:01.024Z,15.00
2023-05-13T07:17:28.378Z,14.90
2023-05-13T07:19:56.362Z,14.70
2023-05-13T07:22:23.379Z,14.70
2023-05-13T07:24:50.452Z,14.80
2023-05-13T07:27:17.413Z,14.90
2023-05-13T07:29:44.380Z,15.00
2023-05-13T07:32:11.429Z,15.00
2023-05-13T07:34:39.068Z,15.30
2023-05-13T07:37:06.318Z,15.40
2023-05-13T07:39:33.279Z,15.50
2023-05-13T07:42:00.885Z,15.50
2023-05-13T07:44:28.207Z,15.60
2023-05-13T07:46:55.781Z,15.60
2023-05-13T07:49:23.365Z,15.90
2023-05-13T07:51:50.666Z,16.20
2023-05-13T07:54:18.802Z,16.20
2023-05-13T07:56:47.270Z,16.40
2023-05-13T07:59:14.240Z,16.50
2023-05-13T08:01:42.192Z,16.50
2023-05-13T08:04:09.269Z,16.50
2023-05-13T08:06:37.169Z,16.80
2023-05-13T08:09:04.318Z,16.90
2023-05-13T08:11:31.552Z,16.80
2023-05-13T08:14:00.705Z,17.00
2023-05-13T08:16:27.716Z,17.00
2023-05-13T08:18:55.348Z,16.70
2023-05-13T08:21:22.311Z,16.90
2023-05-13T08:23:52.173Z,17.00
2023-05-13T08:26:19.512Z,17.30
2023-05-13T08:28:46.866Z,17.30
2023-05-13T08:31:14.347Z,17.10
2023-05-13T08:33:47.549Z,17.20
2023-05-13T08:36:15.340Z,17.40
2023-05-13T08:38:43.738Z,17.60
2023-05-13T08:41:14.767Z,17.70
2023-05-13T08:43:46.921Z,17.80
2023-05-13T08:46:17.291Z,17.90
2023-05-13T08:48:45.959Z,17.90
2023-05-13T08:51:14.761Z,18.00
2023-05-13T08:53:42.859Z,18.30
2023-05-13T08:56:10.706Z,18.20
2023-05-13T08:58:37.722Z,18.30
2023-05-13T09:01:07.663Z,18.20
2023-05-13T09:03:36.012Z,18.30
2023-05-13T09:06:03.749Z,18.50
2023-05-13T09:08:32.749Z,18.60
2023-05-13T09:11:01.048Z,18.60
2023-05-13T09:13:28.162Z,18.70
2023-05-13T09:15:55.874Z,18.60
2023-05-13T09:18:32.862Z,18.60
2023-05-13T09:21:27.110Z,18.70
2023-05-13T09:24:11.331Z,18.90
2023-05-13T09:26:39.608Z,18.80
2023-05-13T09:29:39.162Z,18.90
2023-05-13T09:32:09.904Z,19.10
2023-05-13T09:34:37.149Z,19.20
2023-05-13T09:37:17.390Z,19.50
2023-05-13T09:39:44.330Z,19.80
2023-05-13T09:42:19.107Z,19.70
2023-05-13T09:44:47.829Z,19.70
2023-05-13T09:47:16.023Z,19.80
2023-05-13T09:49:44.660Z,19.80
2023-05-13T09:52:12.049Z,19.90
2023-05-13T09:54:39.321Z,20.30
2023-05-13T09:57:06.830Z,20.60
2023-05-13T09:59:35.190Z,20.40
2023-05-13T10:02:06.712Z,20.50
2023-05-13T10:04:36.361Z,20.60
2023-05-13T10:07:05.234Z,20.80
2023-05-13T10:09:36.584Z,21.00
2023-05-13T10:12:06.826Z,20.90
2023-05-13T10:14:34.831Z,20.90
2023-05-13T10:17:02.551Z,21.10
2023-05-13T10:19:29.888Z,21.10
2023-05-13T10:21:58.500Z,21.00
2023-05-13T10:24:27.283Z,21.00
2023-05-13T10:26:54.863Z,21.00
2023-05-13T10:29:23.522Z,21.00
2023-05-13T10:31:51.270Z,21.40
2023-05-13T10:34:18.390Z,21.40
2023-05-13T10:37:05.091Z,21.60
2023-05-13T10:40:04.967Z,22.00
2023-05-13T10:42:43.410Z,21.90
2023-05-13T10:45:11.252Z,22.20
2023-05-13T10:47:39.206Z,22.40
2023-05-13T10:50:26.930Z,22.40
2023-05-13T10:52:59.711Z,22.90
2023-05-13T10:55:27.372Z,23.10
2023-05-13T10:58:12.246Z,23.00
2023-05-13T11:00:41.502Z,22.40
2023-05-13T11:03:20.852Z,22.40
2023-05-13T11:06:00.215Z,22.30
2023-05-13T11:08:39.704Z,22.40
2023-05-13T11:11:21.176Z,22.40
2023-05-13T11:13:54.895Z,22.70
2023-05-13T11:16:24.342Z,22.90
2023-05-13T11:18:53.044Z,23.30
2023-05-13T11:21:33.121Z,23.50
2023-05-13T11:24:06.021Z,23.10
2023-05-13T11:26:47.068Z,22.80
2023-05-13T11:29:15.791Z,23.20
2023-05-13T11:31:53.217Z,23.60
2023-05-13T11:34:20.802Z,24.10
2023-05-13T11:36:49.141Z,24.20
2023-05-13T11:39:18.684Z,24.40
2023-05-13T11:41:50.931Z,24.70
2023-05-13T11:44:23.137Z,24.60
2023-05-13T11:46:56.827Z,24.70
2023-05-13T11:49:41.087Z,24.70
2023-05-13T11:52:10.454Z,24.80
2023-05-13T11:54:42.337Z,24.90
2023-05-13T11:57:20.332Z,25.00
2023-05-13T11:59:55.939Z,24.90
2023-05-13T12:02:25.411Z,24.30
2023-05-13T12:04:55.170Z,24.60
2023-05-13T12:07:23.964Z,24.90
2023-05-13T12:09:53.406Z,25.10
2023-05-13T12:12:20.804Z,25.40
2023-05-13T12:14:50.505Z,25.50
2023-05-13T12:17:18.755Z,25.30
2023-05-13T12:20:11.488Z,25.30
2023-05-13T12:22:49.759Z,24.50
2023-05-13T12:25:43.725Z,24.30
2023-05-13T12:28:24.167Z,24.40
2023-05-13T12:30:54.897Z,24.20
2023-05-13T12:33:29.534Z,23.90
2023-05-13T12:36:33.772Z,24.00
2023-05-13T12:39:04.555Z,25.10
2023-05-13T12:41:36.509Z,25.80
2023-05-13T12:44:16.446Z,25.40
2023-05-13T12:46:54.720Z,25.30
2023-05-13T12:49:23.530Z,25.90
2023-05-13T12:51:51.898Z,26.70
2023-05-13T12:54:19.120Z,26.30
2023-05-13T12:56:46.247Z,26.50
2023-05-13T12:59:15.002Z,27.40
2023-05-13T13:01:44.321Z,27.20
2023-05-13T13:04:13.109Z,27.50
2023-05-13T13:06:43.308Z,27.70
2023-05-13T13:09:12.654Z,27.50
2023-05-13T13:11:39.662Z,27.80
2023-05-13T13:14:08.838Z,28.40
2023-05-13T13:16:37.105Z,29.00
2023-05-13T13:19:05.863Z,28.90
2023-05-13T13:21:33.077Z,28.30
2023-05-13T13:24:00.353Z,28.50
2023-05-13T13:26:31.584Z,28.60
2023-05-13T13:28:58.721Z,29.10
2023-05-13T13:31:25.811Z,28.40
2023-05-13T13:33:54.055Z,28.10
2023-05-13T13:36:21.025Z,27.20
2023-05-13T13:38:48.015Z,27.40
2023-05-13T13:41:14.958Z,28.20
2023-05-13T13:43:41.960Z,28.60
2023-05-13T13:46:08.900Z,30.00
2023-05-13T13:48:35.831Z,30.60
2023-05-13T13:51:03.117Z,33.00
2023-05-13T13:53:31.204Z,34.10
2023-05-13T13:55:58.334Z,34.30
2023-05-13T13:58:26.251Z,33.90
2023-05-13T14:00:56.736Z,32.00
2023-05-13T14:03:24.712Z,31.80
2023-05-13T14:05:52.324Z,33.30
2023-05-13T14:08:20.459Z,34.30
2023-05-13T14:10:47.448Z,34.00
2023-05-13T14:13:15.541Z,34.00
2023-05-13T14:15:42.467Z,32.90
2023-05-13T14:18:10.590Z,34.30
2023-05-13T14:20:38.849Z,35.00
2023-05-13T14:23:05.834Z,35.00
2023-05-13T14:25:33.855Z,35.70
2023-05-13T14:28:00.824Z,36.90
2023-05-13T14:30:28.461Z,37.80
2023-05-13T14:32:55.704Z,38.70
2023-05-13T14:35:22.697Z,36.60
2023-05-13T14:37:49.701Z,34.20
2023-05-13T14:40:17.005Z,34.10
2023-05-13T14:42:44.373Z,33.10
2023-05-13T14:45:15.935Z,33.20
2023-05-13T14:47:46.426Z,33.50
2023-05-13T14:50:15.271Z,31.40
2023-05-13T14:52:44.984Z,30.60
2023-05-13T14:55:12.508Z,30.30
2023-05-13T14:57:40.638Z,31.30
2023-05-13T15:00:09.089Z,32.10
2023-05-13T15:02:41.633Z,31.60
2023-05-13T15:05:09.174Z,30.50
2023-05-13T15:07:37.098Z,29.10
2023-05-13T15:10:04.484Z,28.00
2023-05-13T15:12:31.963Z,27.30
2023-05-13T15:15:00.473Z,27.00
2023-05-13T15:17:29.120Z,26.60
2023-05-13T15:19:56.163Z,26.30
2023-05-13T15:22:24.558Z,26.00
2023-05-13T15:24:51.615Z,25.90
2023-05-13T15:27:19.634Z,25.90
2023-05-13T15:29:46.550Z,26.30
2023-05-13T15:32:13.606Z,26.40
2023-05-13T15:34:41.366Z,26.10
2023-05-13T15:37:08.441Z,25.70
2023-05-13T15:39:37.814Z,25.40
2023-05-13T15:42:05.051Z,25.00
2023-05-13T15:44:32.356Z,24.60
2023-05-13T15:46:59.533Z,24.40
2023-05-13T15:49:27.833Z,24.40
2023-05-13T15:51:56.253Z,24.60
2023-05-13T15:54:24.758Z,24.70
2023-05-13T15:56:52.938Z,25.10
2023-05-13T15:59:20.177Z,25.60
2023-05-13T16:01:47.722Z,25.10
2023-05-13T16:04:15.489Z,24.80
2023-05-13T16:06:43.135Z,24.40
2023-05-13T16:09:13.449Z,24.10
2023-05-13T16:11:40.386Z,23.80
2023-05-13T16:14:08.789Z,23.60
2023-05-13T16:16:35.887Z,23.40
2023-05-13T16:19:03.831Z,23.30
2023-05-13T16:21:32.348Z,23.30
2023-05-13T16:23:59.253Z,23.30
2023-05-13T16:26:26.397Z,23.20
2023-05-13T16:28:54.906Z,23.50
2023-05-13T16:31:23.416Z,24.40
2023-05-13T16:33:51.505Z,24.40
2023-05-13T16:36:18.472Z,23.60
2023-05-13T16:38:53.478Z,23.20
2023-05-13T16:41:21.190Z,22.90
2023-05-13T16:43:48.293Z,22.60
2023-05-13T16:46:16.680Z,22.40
2023-05-13T16:48:44.695Z,22.10
2023-05-13T16:51:11.667Z,22.40
2023-05-13T16:53:38.842Z,23.40
2023-05-13T16:56:06.029Z,24.60
2023-05-13T16:58:33.932Z,25.10
2023-05-13T17:01:01.256Z,25.90
2023-05-13T17:03:28.685Z,25.90
2023-05-13T17:05:56.802Z,25.80
2023-05-13T17:08:27.487Z,25.80
2023-05-13T17:10:55.817Z,26.20
2023-05-13T17:13:23.215Z,27.90
2023-05-13T17:15:52.976Z,30.10
2023-05-13T17:18:19.991Z,32.00
2023-05-13T17:20:47.955Z,31.80
2023-05-13T17:23:19.079Z,31.10
2023-05-13T17:25:50.665Z,31.20
2023-05-13T17:28:20.548Z,31.70
2023-05-13T17:30:47.827Z,32.10
2023-05-13T17:33:15.095Z,31.50
2023-05-13T17:35:42.720Z,32.00
2023-05-13T17:38:11.350Z,32.40
2023-05-13T17:40:39.474Z,31.30
2023-05-13T17:43:06.890Z,30.50
2023-05-13T17:45:35.803Z,29.90
2023-05-13T17:48:03.234Z,29.10
2023-05-13T17:50:32.127Z,28.30
2023-05-13T17:53:00.482Z,27.50
2023-05-13T17:55:27.387Z,26.90
2023-05-13T17:57:58.968Z,26.40
2023-05-13T18:00:28.475Z,26.10
2023-05-13T18:02:58.191Z,25.80
2023-05-13T18:05:25.512Z,25.60
2023-05-13T18:07:52.925Z,25.10
2023-05-13T18:10:20.159Z,25.20
2023-05-13T18:12:48.645Z,25.50
2023-05-13T18:15:15.926Z,25.40
2023-05-13T18:17:44.947Z,25.40
2023-05-13T18:20:13.112Z,25.20
2023-05-13T18:22:40.413Z,24.70
2023-05-13T18:25:08.267Z,24.30
2023-05-13T18:27:35.617Z,23.80
2023-05-13T18:30:03.584Z,23.20
2023-05-13T18:32:31.320Z,23.00
2023-05-13T18:34:58.392Z,22.80
2023-05-13T18:37:25.749Z,22.70
2023-05-13T18:39:52.951Z,22.60
2023-05-13T18:42:25.619Z,22.40
2023-05-13T18:44:52.972Z,22.30
2023-05-13T18:47:20.322Z,21.90
2023-05-13T18:49:47.510Z,21.60
2023-05-13T18:52:15.561Z,21.40
2023-05-13T18:54:43.448Z,21.40
2023-05-13T18:57:11.629Z,21.30
2023-05-13T18:59:39.649Z,21.10
2023-05-13T19:02:09.797Z,21.10
2023-05-13T19:04:38.795Z,21.10
2023-05-13T19:07:07.645Z,21.00
2023-05-13T19:09:39.416Z,20.90
2023-05-13T19:12:09.258Z,20.80
2023-05-13T19:14:37.206Z,20.70
2023-05-13T19:17:05.204Z,20.60
2023-05-13T19:19:33.174Z,20.50
2023-05-13T19:22:01.621Z,20.30
2023-05-13T19:24:30.025Z,20.30
2023-05-13T19:27:00.034Z,20.10
2023-05-13T19:29:27.524Z,20.00
2023-05-13T19:31:54.544Z,20.00
2023-05-13T19:34:22.427Z,20.00
2023-05-13T19:36:51.644Z,19.90
2023-05-13T19:39:18.642Z,19.90
2023-05-13T19:41:47.622Z,19.90
2023-05-13T19:44:14.800Z,19.90
2023-05-13T19:46:42.141Z,19.90
2023-05-13T19:49:10.362Z,19.80
2023-05-13T19:51:37.438Z,19.80
2023-05-13T19:54:09.592Z,19.80
2023-05-13T19:56:37.242Z,19.90
2023-05-13T19:59:05.345Z,19.80
2023-05-13T20:01:34.796Z,19.80
2023-05-13T20:04:04.997Z,19.90
2023-05-13T20:06:33.524Z,19.80
2023-05-13T20:09:02.766Z,19.50
2023-05-13T20:11:30.955Z,19.50
2023-05-13T20:14:00.550Z,19.50
2023-05-13T20:16:29.602Z,19.40
2023-05-13T20:18:56.910Z,19.40
2023-05-13T20:21:24.935Z,19.30
2023-05-13T20:23:52.349Z,19.10
2023-05-13T20:26:21.013Z,19.20
2023-05-13T20:28:48.769Z,19.10
2023-05-13T20:34:00.501Z,19.00
2023-05-13T20:36:27.997Z,19.00
2023-05-13T20:38:55.854Z,19.00
2023-05-13T20:41:24.944Z,18.90
2023-05-13T20:43:51.978Z,18.90
2023-05-13T20:46:19.222Z,18.80
2023-05-13T20:48:47.815Z,18.90
2023-05-13T20:51:16.612Z,18.90
2023-05-13T20:53:43.830Z,18.80
2023-05-13T20:56:11.636Z,18.80
2023-05-13T20:58:38.964Z,18.80
2023-05-13T21:01:07.845Z,18.60
2023-05-13T21:03:35.496Z,18.60
2023-05-13T21:06:03.058Z,18.50
2023-05-13T21:08:30.280Z,18.50
2023-05-13T21:11:00.956Z,18.50
2023-05-13T21:13:28.133Z,18.60
2023-05-13T21:15:58.607Z,18.60
2023-05-13T21:18:27.076Z,18.60
2023-05-13T21:20:54.984Z,18.50
2023-05-13T21:23:22.083Z,18.40
2023-05-13T21:25:50.969Z,18.20
2023-05-13T21:28:19.230Z,18.20
2023-05-13T21:30:46.575Z,18.10
2023-05-13T21:33:14.911Z,18.00
2023-05-13T21:35:43.300Z,17.90
2023-05-13T21:38:12.395Z,17.90
2023-05-13T21:40:41.208Z,17.90
2023-05-13T21:43:09.339Z,17.90
2023-05-13T21:45:36.654Z,18.00
2023-05-13T21:48:04.521Z,18.10
2023-05-13T21:50:42.562Z,18.00
2023-05-13T21:53:09.809Z,18.00
2023-05-13T21:55:36.939Z,18.10
2023-05-13T21:58:04.224Z,18.10
2023-05-13T22:00:32.049Z,18.10
2023-05-13T22:03:00.633Z,18.10
2023-05-13T22:05:28.526Z,18.10
2023-05-13T22:07:57.562Z,18.10
2023-05-13T22:10:25.128Z,18.10
2023-05-13T22:12:52.419Z,18.10
2023-05-13T22:15:20.904Z,18.10
2023-05-13T22:17:50.815Z,18.10
2023-05-13T22:20:19.258Z,18.00
2023-05-13T22:22:48.174Z,17.80
2023-05-13T22:25:15.362Z,17.80
2023-05-13T22:27:42.604Z,17.90
2023-05-13T22:30:09.934Z,17.90
2023-05-13T22:32:38.645Z,17.80
2023-05-13T22:35:06.801Z,17.80
2023-05-13T22:37:35.023Z,17.80
2023-05-13T22:40:03.790Z,17.80
2023-05-13T22:42:30.778Z,17.70
2023-05-13T22:44:57.881Z,17.80
2023-05-13T22:47:25.623Z,17.80
2023-05-13T22:49:52.869Z,17.80
2023-05-13T22:52:24.253Z,17.70
2023-05-13T22:54:52.309Z,17.60
2023-05-13T22:57:19.664Z,17.60
2023-05-13T22:59:47.138Z,17.60
2023-05-13T23:02:15.874Z,17.50
2023-05-13T23:04:44.327Z,17.50
2023-05-13T23:07:14.567Z,17.50
2023-05-13T23:09:43.183Z,17.40
2023-05-13T23:12:12.911Z,17.40
2023-05-13T23:14:40.847Z,17.30
2023-05-13T23:17:08.724Z,17.30
2023-05-13T23:19:39.566Z,17.20
2023-05-13T23:22:07.133Z,17.10
2023-05-13T23:24:34.983Z,17.10
2023-05-13T23:27:01.914Z,17.00
2023-05-13T23:29:28.925Z,17.00
2023-05-13T23:31:56.134Z,16.90
2023-05-13T23:34:23.202Z,16.80
2023-05-13T23:36:50.144Z,16.70
2023-05-13T23:39:19.594Z,16.60
2023-05-13T23:41:47.228Z,16.50
2023-05-13T23:44:14.361Z,16.40
2023-05-13T23:46:41.275Z,16.30
2023-05-13T23:49:09.474Z,16.20
2023-05-13T23:51:36.606Z,16.00
2023-05-13T23:54:03.773Z,16.00
2023-05-13T23:56:32.720Z,15.90
2023-05-13T23:58:59.824Z,15.80
